sensor_id;sensor_type;location;lat;lon;timestamp;P1;durP1;ratioP1;P2;durP2;ratioP2
16127;SDS011;8168;49.036;7.690;2023-09-07T00:01:36;3.10;;;2.80;;
16127;SDS011;8168;49.036;7.690;2023-09-07T00:04:07;3.13;;;2.50;;
16127;SDS011;8168;49.036;7.690;2023-09-07T00:06:37;2.80;;;2.37;;
16127;SDS011;8168;49.036;7.690;2023-09-07T00:09:10;3.00;;;2.73;;
16127;SDS011;8168;49.036;7.690;2023-09-07T00:11:41;3.00;;;2.67;;
16127;SDS011;8168;49.036;7.690;2023-09-07T00:14:12;2.97;;;2.67;;
16127;SDS011;8168;49.036;7.690;2023-09-07T00:16:43;2.57;;;2.30;;
16127;SDS011;8168;49.036;7.690;2023-09-07T00:19:13;2.90;;;2.53;;
16127;SDS011;8168;49.036;7.690;2023-09-07T00:21:44;4.27;;;2.33;;
16127;SDS011;8168;49.036;7.690;2023-09-07T00:24:14;4.23;;;2.10;;
16127;SDS011;8168;49.036;7.690;2023-09-07T00:26:46;2.30;;;2.10;;
16127;SDS011;8168;49.036;7.690;2023-09-07T00:29:16;2.63;;;2.40;;
16127;SDS011;8168;49.036;7.690;2023-09-07T00:31:47;2.90;;;2.47;;
16127;SDS011;8168;49.036;7.690;2023-09-07T00:34:17;2.97;;;2.17;;
16127;SDS011;8168;49.036;7.690;2023-09-07T00:36:48;4.57;;;2.13;;
16127;SDS011;8168;49.036;7.690;2023-09-07T00:39:19;2.20;;;2.00;;
16127;SDS011;8168;49.036;7.690;2023-09-07T00:41:49;2.60;;;2.20;;
16127;SDS011;8168;49.036;7.690;2023-09-07T00:44:20;2.20;;;1.97;;
16127;SDS011;8168;49.036;7.690;2023-09-07T00:46:50;2.20;;;2.00;;
16127;SDS011;8168;49.036;7.690;2023-09-07T00:49:21;2.13;;;1.93;;
16127;SDS011;8168;49.036;7.690;2023-09-07T00:51:53;3.97;;;2.10;;
16127;SDS011;8168;49.036;7.690;2023-09-07T00:54:23;2.50;;;2.30;;
16127;SDS011;8168;49.036;7.690;2023-09-07T00:56:54;2.83;;;1.90;;
16127;SDS011;8168;49.036;7.690;2023-09-07T00:59:25;2.43;;;2.03;;
16127;SDS011;8168;49.036;7.690;2023-09-07T01:01:56;3.03;;;2.20;;
16127;SDS011;8168;49.036;7.690;2023-09-07T01:04:27;2.07;;;1.80;;
16127;SDS011;8168;49.036;7.690;2023-09-07T01:07:09;3.00;;;1.60;;
16127;SDS011;8168;49.036;7.690;2023-09-07T01:09:49;2.07;;;1.87;;
16127;SDS011;8168;49.036;7.690;2023-09-07T01:12:24;2.00;;;1.80;;
16127;SDS011;8168;49.036;7.690;2023-09-07T01:14:54;1.90;;;1.70;;
16127;SDS011;8168;49.036;7.690;2023-09-07T01:17:25;2.90;;;2.00;;
16127;SDS011;8168;49.036;7.690;2023-09-07T01:19:57;3.23;;;2.47;;
16127;SDS011;8168;49.036;7.690;2023-09-07T01:22:35;2.30;;;2.10;;
16127;SDS011;8168;49.036;7.690;2023-09-07T01:25:07;2.20;;;2.00;;
16127;SDS011;8168;49.036;7.690;2023-09-07T01:27:38;2.00;;;1.83;;
16127;SDS011;8168;49.036;7.690;2023-09-07T01:30:09;1.93;;;1.73;;
16127;SDS011;8168;49.036;7.690;2023-09-07T01:32:41;2.07;;;1.90;;
16127;SDS011;8168;49.036;7.690;2023-09-07T01:35:11;2.30;;;2.00;;
16127;SDS011;8168;49.036;7.690;2023-09-07T01:37:44;1.80;;;1.70;;
16127;SDS011;8168;49.036;7.690;2023-09-07T01:40:15;2.00;;;1.90;;
16127;SDS011;8168;49.036;7.690;2023-09-07T01:42:46;3.43;;;1.60;;
16127;SDS011;8168;49.036;7.690;2023-09-07T01:45:16;1.67;;;1.57;;
16127;SDS011;8168;49.036;7.690;2023-09-07T01:47:47;1.73;;;1.50;;
16127;SDS011;8168;49.036;7.690;2023-09-07T01:50:18;1.50;;;1.40;;
16127;SDS011;8168;49.036;7.690;2023-09-07T01:52:48;1.80;;;1.70;;
16127;SDS011;8168;49.036;7.690;2023-09-07T01:55:19;3.57;;;1.60;;
16127;SDS011;8168;49.036;7.690;2023-09-07T01:57:50;4.17;;;1.67;;
16127;SDS011;8168;49.036;7.690;2023-09-07T02:00:20;1.70;;;1.60;;
16127;SDS011;8168;49.036;7.690;2023-09-07T02:02:51;1.50;;;1.40;;
16127;SDS011;8168;49.036;7.690;2023-09-07T02:05:21;2.20;;;2.07;;
16127;SDS011;8168;49.036;7.690;2023-09-07T02:07:52;1.70;;;1.60;;
16127;SDS011;8168;49.036;7.690;2023-09-07T02:10:23;2.53;;;1.97;;
16127;SDS011;8168;49.036;7.690;2023-09-07T02:12:53;2.27;;;2.07;;
16127;SDS011;8168;49.036;7.690;2023-09-07T02:15:24;2.20;;;2.00;;
16127;SDS011;8168;49.036;7.690;2023-09-07T02:17:55;2.87;;;1.87;;
16127;SDS011;8168;49.036;7.690;2023-09-07T02:20:25;2.23;;;2.03;;
16127;SDS011;8168;49.036;7.690;2023-09-07T02:22:56;2.63;;;1.93;;
16127;SDS011;8168;49.036;7.690;2023-09-07T02:25:26;2.07;;;1.87;;
16127;SDS011;8168;49.036;7.690;2023-09-07T02:28:00;3.00;;;1.70;;
16127;SDS011;8168;49.036;7.690;2023-09-07T02:30:31;1.70;;;1.60;;
16127;SDS011;8168;49.036;7.690;2023-09-07T02:33:02;1.97;;;1.70;;
16127;SDS011;8168;49.036;7.690;2023-09-07T02:35:36;1.73;;;1.63;;
16127;SDS011;8168;49.036;7.690;2023-09-07T02:38:07;2.30;;;1.90;;
16127;SDS011;8168;49.036;7.690;2023-09-07T02:40:41;2.20;;;2.00;;
16127;SDS011;8168;49.036;7.690;2023-09-07T02:43:12;1.83;;;1.73;;
16127;SDS011;8168;49.036;7.690;2023-09-07T02:45:43;1.93;;;1.73;;
16127;SDS011;8168;49.036;7.690;2023-09-07T02:48:13;5.20;;;1.90;;
16127;SDS011;8168;49.036;7.690;2023-09-07T02:50:44;3.23;;;1.67;;
16127;SDS011;8168;49.036;7.690;2023-09-07T02:53:18;1.50;;;1.40;;
16127;SDS011;8168;49.036;7.690;2023-09-07T02:55:49;1.60;;;1.50;;
16127;SDS011;8168;49.036;7.690;2023-09-07T02:58:19;1.80;;;1.70;;
16127;SDS011;8168;49.036;7.690;2023-09-07T03:00:50;1.90;;;1.80;;
16127;SDS011;8168;49.036;7.690;2023-09-07T03:03:21;1.93;;;1.70;;
16127;SDS011;8168;49.036;7.690;2023-09-07T03:05:52;2.83;;;1.80;;
16127;SDS011;8168;49.036;7.690;2023-09-07T03:08:22;2.40;;;1.57;;
16127;SDS011;8168;49.036;7.690;2023-09-07T03:10:54;1.63;;;1.50;;
16127;SDS011;8168;49.036;7.690;2023-09-07T03:13:25;1.60;;;1.50;;
16127;SDS011;8168;49.036;7.690;2023-09-07T03:15:56;2.03;;;1.77;;
16127;SDS011;8168;49.036;7.690;2023-09-07T03:18:27;1.67;;;1.57;;
16127;SDS011;8168;49.036;7.690;2023-09-07T03:21:00;1.70;;;1.57;;
16127;SDS011;8168;49.036;7.690;2023-09-07T03:23:32;3.63;;;1.50;;
16127;SDS011;8168;49.036;7.690;2023-09-07T03:26:03;1.70;;;1.60;;
16127;SDS011;8168;49.036;7.690;2023-09-07T03:28:34;1.60;;;1.50;;
16127;SDS011;8168;49.036;7.690;2023-09-07T03:31:04;1.50;;;1.40;;
16127;SDS011;8168;49.036;7.690;2023-09-07T03:33:35;1.43;;;1.30;;
16127;SDS011;8168;49.036;7.690;2023-09-07T03:36:06;2.80;;;1.53;;
16127;SDS011;8168;49.036;7.690;2023-09-07T03:38:36;2.07;;;1.70;;
16127;SDS011;8168;49.036;7.690;2023-09-07T03:41:07;2.10;;;1.90;;
16127;SDS011;8168;49.036;7.690;2023-09-07T03:43:38;1.53;;;1.43;;
16127;SDS011;8168;49.036;7.690;2023-09-07T03:46:08;2.27;;;1.53;;
16127;SDS011;8168;49.036;7.690;2023-09-07T03:48:39;2.00;;;1.80;;
16127;SDS011;8168;49.036;7.690;2023-09-07T03:51:09;5.63;;;2.23;;
16127;SDS011;8168;49.036;7.690;2023-09-07T03:53:40;1.87;;;1.67;;
16127;SDS011;8168;49.036;7.690;2023-09-07T03:56:11;1.60;;;1.50;;
16127;SDS011;8168;49.036;7.690;2023-09-07T03:58:41;2.80;;;1.60;;
16127;SDS011;8168;49.036;7.690;2023-09-07T04:01:12;2.00;;;1.80;;
16127;SDS011;8168;49.036;7.690;2023-09-07T04:03:43;1.20;;;1.20;;
16127;SDS011;8168;49.036;7.690;2023-09-07T04:06:14;1.60;;;1.50;;
16127;SDS011;8168;49.036;7.690;2023-09-07T04:08:44;1.40;;;1.30;;
16127;SDS011;8168;49.036;7.690;2023-09-07T04:11:15;1.60;;;1.50;;
16127;SDS011;8168;49.036;7.690;2023-09-07T04:13:46;2.47;;;1.90;;
16127;SDS011;8168;49.036;7.690;2023-09-07T04:16:16;1.83;;;1.73;;
16127;SDS011;8168;49.036;7.690;2023-09-07T04:18:47;1.80;;;1.50;;
16127;SDS011;8168;49.036;7.690;2023-09-07T04:21:17;5.10;;;1.73;;
16127;SDS011;8168;49.036;7.690;2023-09-07T04:23:48;1.70;;;1.53;;
16127;SDS011;8168;49.036;7.690;2023-09-07T04:26:19;1.60;;;1.50;;
16127;SDS011;8168;49.036;7.690;2023-09-07T04:28:49;1.80;;;1.70;;
16127;SDS011;8168;49.036;7.690;2023-09-07T04:31:20;1.87;;;1.70;;
16127;SDS011;8168;49.036;7.690;2023-09-07T04:33:51;3.17;;;1.63;;
16127;SDS011;8168;49.036;7.690;2023-09-07T04:36:22;1.60;;;1.50;;
16127;SDS011;8168;49.036;7.690;2023-09-07T04:38:53;1.73;;;1.63;;
16127;SDS011;8168;49.036;7.690;2023-09-07T04:41:24;2.60;;;1.73;;
16127;SDS011;8168;49.036;7.690;2023-09-07T04:43:54;2.33;;;1.90;;
16127;SDS011;8168;49.036;7.690;2023-09-07T04:46:25;1.73;;;1.63;;
16127;SDS011;8168;49.036;7.690;2023-09-07T04:48:55;1.57;;;1.40;;
16127;SDS011;8168;49.036;7.690;2023-09-07T04:51:26;2.13;;;1.77;;
16127;SDS011;8168;49.036;7.690;2023-09-07T04:53:56;3.40;;;1.90;;
16127;SDS011;8168;49.036;7.690;2023-09-07T04:56:27;1.70;;;1.60;;
16127;SDS011;8168;49.036;7.690;2023-09-07T04:58:59;2.00;;;1.80;;
16127;SDS011;8168;49.036;7.690;2023-09-07T05:01:29;1.83;;;1.50;;
16127;SDS011;8168;49.036;7.690;2023-09-07T05:04:01;1.83;;;1.73;;
16127;SDS011;8168;49.036;7.690;2023-09-07T05:06:33;1.50;;;1.40;;
16127;SDS011;8168;49.036;7.690;2023-09-07T05:09:07;2.10;;;1.60;;
16127;SDS011;8168;49.036;7.690;2023-09-07T05:11:37;1.80;;;1.70;;
16127;SDS011;8168;49.036;7.690;2023-09-07T05:14:08;1.60;;;1.50;;
16127;SDS011;8168;49.036;7.690;2023-09-07T05:16:39;1.60;;;1.47;;
16127;SDS011;8168;49.036;7.690;2023-09-07T05:19:13;1.50;;;1.40;;
16127;SDS011;8168;49.036;7.690;2023-09-07T05:21:44;2.43;;;1.73;;
16127;SDS011;8168;49.036;7.690;2023-09-07T05:24:14;1.70;;;1.50;;
16127;SDS011;8168;49.036;7.690;2023-09-07T05:26:45;1.60;;;1.50;;
16127;SDS011;8168;49.036;7.690;2023-09-07T05:29:16;2.00;;;1.70;;
16127;SDS011;8168;49.036;7.690;2023-09-07T05:31:46;1.67;;;1.57;;
16127;SDS011;8168;49.036;7.690;2023-09-07T05:34:17;1.80;;;1.70;;
16127;SDS011;8168;49.036;7.690;2023-09-07T05:36:48;1.87;;;1.67;;
16127;SDS011;8168;49.036;7.690;2023-09-07T05:39:18;3.23;;;1.80;;
16127;SDS011;8168;49.036;7.690;2023-09-07T05:41:49;1.63;;;1.50;;
16127;SDS011;8168;49.036;7.690;2023-09-07T05:44:20;1.80;;;1.70;;
16127;SDS011;8168;49.036;7.690;2023-09-07T05:46:50;2.77;;;1.70;;
16127;SDS011;8168;49.036;7.690;2023-09-07T05:49:21;1.83;;;1.70;;
16127;SDS011;8168;49.036;7.690;2023-09-07T05:51:51;1.83;;;1.73;;
16127;SDS011;8168;49.036;7.690;2023-09-07T05:54:22;1.80;;;1.60;;
16127;SDS011;8168;49.036;7.690;2023-09-07T05:56:52;1.97;;;1.50;;
16127;SDS011;8168;49.036;7.690;2023-09-07T05:59:23;1.57;;;1.47;;
16127;SDS011;8168;49.036;7.690;2023-09-07T06:01:54;3.60;;;1.80;;
16127;SDS011;8168;49.036;7.690;2023-09-07T06:04:24;2.07;;;1.80;;
16127;SDS011;8168;49.036;7.690;2023-09-07T06:06:55;1.93;;;1.80;;
16127;SDS011;8168;49.036;7.690;2023-09-07T06:09:25;2.13;;;1.90;;
16127;SDS011;8168;49.036;7.690;2023-09-07T06:11:56;2.20;;;2.00;;
16127;SDS011;8168;49.036;7.690;2023-09-07T06:14:27;4.07;;;2.40;;
16127;SDS011;8168;49.036;7.690;2023-09-07T06:16:57;2.90;;;2.40;;
16127;SDS011;8168;49.036;7.690;2023-09-07T06:19:28;2.43;;;2.23;;
16127;SDS011;8168;49.036;7.690;2023-09-07T06:21:58;7.27;;;2.00;;
16127;SDS011;8168;49.036;7.690;2023-09-07T06:24:29;3.40;;;2.53;;
16127;SDS011;8168;49.036;7.690;2023-09-07T06:26:59;3.10;;;2.63;;
16127;SDS011;8168;49.036;7.690;2023-09-07T06:29:30;3.67;;;2.50;;
16127;SDS011;8168;49.036;7.690;2023-09-07T06:32:01;3.30;;;2.77;;
16127;SDS011;8168;49.036;7.690;2023-09-07T06:34:31;2.97;;;2.70;;
16127;SDS011;8168;49.036;7.690;2023-09-07T06:37:02;3.33;;;2.70;;
16127;SDS011;8168;49.036;7.690;2023-09-07T06:39:33;3.03;;;2.73;;
16127;SDS011;8168;49.036;7.690;2023-09-07T06:42:03;4.80;;;2.93;;
16127;SDS011;8168;49.036;7.690;2023-09-07T06:44:34;5.73;;;2.60;;
16127;SDS011;8168;49.036;7.690;2023-09-07T06:47:05;3.43;;;2.90;;
16127;SDS011;8168;49.036;7.690;2023-09-07T06:49:37;3.67;;;3.13;;
16127;SDS011;8168;49.036;7.690;2023-09-07T06:52:08;4.60;;;3.13;;
16127;SDS011;8168;49.036;7.690;2023-09-07T06:54:39;5.40;;;3.07;;
16127;SDS011;8168;49.036;7.690;2023-09-07T06:57:09;4.17;;;3.37;;
16127;SDS011;8168;49.036;7.690;2023-09-07T06:59:40;3.27;;;3.03;;
16127;SDS011;8168;49.036;7.690;2023-09-07T07:02:10;4.03;;;3.23;;
16127;SDS011;8168;49.036;7.690;2023-09-07T07:04:41;4.23;;;3.33;;
16127;SDS011;8168;49.036;7.690;2023-09-07T07:07:13;4.47;;;3.30;;
16127;SDS011;8168;49.036;7.690;2023-09-07T07:09:44;4.00;;;3.57;;
16127;SDS011;8168;49.036;7.690;2023-09-07T07:12:15;5.83;;;3.10;;
16127;SDS011;8168;49.036;7.690;2023-09-07T07:14:45;3.60;;;3.20;;
16127;SDS011;8168;49.036;7.690;2023-09-07T07:17:16;3.43;;;3.13;;
16127;SDS011;8168;49.036;7.690;2023-09-07T07:19:46;4.00;;;3.60;;
16127;SDS011;8168;49.036;7.690;2023-09-07T07:22:17;3.23;;;2.93;;
16127;SDS011;8168;49.036;7.690;2023-09-07T07:24:48;3.47;;;3.17;;
16127;SDS011;8168;49.036;7.690;2023-09-07T07:27:18;3.70;;;3.33;;
16127;SDS011;8168;49.036;7.690;2023-09-07T07:29:50;8.57;;;3.83;;
16127;SDS011;8168;49.036;7.690;2023-09-07T07:32:21;4.67;;;3.87;;
16127;SDS011;8168;49.036;7.690;2023-09-07T07:34:52;4.50;;;3.03;;
16127;SDS011;8168;49.036;7.690;2023-09-07T07:37:23;3.87;;;3.57;;
16127;SDS011;8168;49.036;7.690;2023-09-07T07:39:54;3.60;;;3.30;;
16127;SDS011;8168;49.036;7.690;2023-09-07T07:42:24;3.60;;;3.17;;
16127;SDS011;8168;49.036;7.690;2023-09-07T07:44:55;4.40;;;3.40;;
16127;SDS011;8168;49.036;7.690;2023-09-07T07:47:26;3.97;;;3.60;;
16127;SDS011;8168;49.036;7.690;2023-09-07T07:49:56;4.17;;;3.70;;
16127;SDS011;8168;49.036;7.690;2023-09-07T07:52:27;4.03;;;3.67;;
16127;SDS011;8168;49.036;7.690;2023-09-07T07:54:57;3.80;;;3.33;;
16127;SDS011;8168;49.036;7.690;2023-09-07T07:57:28;4.47;;;3.30;;
16127;SDS011;8168;49.036;7.690;2023-09-07T07:59:59;6.00;;;2.93;;
16127;SDS011;8168;49.036;7.690;2023-09-07T08:02:29;5.80;;;3.50;;
16127;SDS011;8168;49.036;7.690;2023-09-07T08:05:00;6.57;;;3.60;;
16127;SDS011;8168;49.036;7.690;2023-09-07T08:07:31;3.87;;;3.27;;
16127;SDS011;8168;49.036;7.690;2023-09-07T08:10:02;3.63;;;3.30;;
16127;SDS011;8168;49.036;7.690;2023-09-07T08:12:33;3.57;;;3.07;;
16127;SDS011;8168;49.036;7.690;2023-09-07T08:15:04;3.97;;;3.57;;
16127;SDS011;8168;49.036;7.690;2023-09-07T08:17:34;4.93;;;3.43;;
16127;SDS011;8168;49.036;7.690;2023-09-07T08:20:05;3.83;;;3.43;;
16127;SDS011;8168;49.036;7.690;2023-09-07T08:22:38;3.93;;;3.17;;
16127;SDS011;8168;49.036;7.690;2023-09-07T08:25:11;4.10;;;3.70;;
16127;SDS011;8168;49.036;7.690;2023-09-07T08:27:49;4.03;;;3.23;;
16127;SDS011;8168;49.036;7.690;2023-09-07T08:30:19;3.47;;;3.10;;
16127;SDS011;8168;49.036;7.690;2023-09-07T08:32:52;4.10;;;3.70;;
16127;SDS011;8168;49.036;7.690;2023-09-07T08:35:23;4.07;;;3.73;;
16127;SDS011;8168;49.036;7.690;2023-09-07T08:37:57;5.83;;;3.80;;
16127;SDS011;8168;49.036;7.690;2023-09-07T08:40:28;3.43;;;3.13;;
16127;SDS011;8168;49.036;7.690;2023-09-07T08:43:00;3.73;;;3.43;;
16127;SDS011;8168;49.036;7.690;2023-09-07T08:45:34;3.53;;;3.00;;
16127;SDS011;8168;49.036;7.690;2023-09-07T08:48:11;3.63;;;3.33;;
16127;SDS011;8168;49.036;7.690;2023-09-07T08:50:47;3.90;;;3.53;;
16127;SDS011;8168;49.036;7.690;2023-09-07T08:53:20;3.67;;;3.37;;
16127;SDS011;8168;49.036;7.690;2023-09-07T08:55:52;4.20;;;3.33;;
16127;SDS011;8168;49.036;7.690;2023-09-07T08:58:23;4.47;;;3.90;;
16127;SDS011;8168;49.036;7.690;2023-09-07T09:00:53;4.40;;;3.60;;
16127;SDS011;8168;49.036;7.690;2023-09-07T09:03:27;3.97;;;3.57;;
16127;SDS011;8168;49.036;7.690;2023-09-07T09:05:59;4.77;;;3.60;;
16127;SDS011;8168;49.036;7.690;2023-09-07T09:08:46;3.93;;;3.53;;
16127;SDS011;8168;49.036;7.690;2023-09-07T09:11:24;3.60;;;3.30;;
16127;SDS011;8168;49.036;7.690;2023-09-07T09:13:56;3.90;;;3.47;;
16127;SDS011;8168;49.036;7.690;2023-09-07T09:16:26;3.77;;;3.10;;
16127;SDS011;8168;49.036;7.690;2023-09-07T09:18:57;4.87;;;3.27;;
16127;SDS011;8168;49.036;7.690;2023-09-07T09:21:28;3.83;;;3.43;;
16127;SDS011;8168;49.036;7.690;2023-09-07T09:23:58;4.13;;;3.73;;
16127;SDS011;8168;49.036;7.690;2023-09-07T09:26:30;4.17;;;3.77;;
16127;SDS011;8168;49.036;7.690;2023-09-07T09:29:03;3.93;;;3.30;;
16127;SDS011;8168;49.036;7.690;2023-09-07T09:31:34;4.07;;;3.67;;
16127;SDS011;8168;49.036;7.690;2023-09-07T09:34:04;4.25;;;3.72;;
16127;SDS011;8168;49.036;7.690;2023-09-07T09:36:36;3.42;;;3.13;;
16127;SDS011;8168;49.036;7.690;2023-09-07T09:39:07;4.40;;;4.00;;
16127;SDS011;8168;49.036;7.690;2023-09-07T09:41:39;3.83;;;3.50;;
16127;SDS011;8168;49.036;7.690;2023-09-07T09:44:10;4.27;;;3.50;;
16127;SDS011;8168;49.036;7.690;2023-09-07T09:46:42;5.53;;;3.90;;
16127;SDS011;8168;49.036;7.690;2023-09-07T09:49:15;3.50;;;3.20;;
16127;SDS011;8168;49.036;7.690;2023-09-07T09:51:47;4.00;;;3.63;;
16127;SDS011;8168;49.036;7.690;2023-09-07T09:54:21;3.75;;;3.45;;
16127;SDS011;8168;49.036;7.690;2023-09-07T09:56:53;4.00;;;3.70;;
16127;SDS011;8168;49.036;7.690;2023-09-07T09:59:24;3.67;;;3.38;;
16127;SDS011;8168;49.036;7.690;2023-09-07T10:01:55;7.15;;;3.80;;
16127;SDS011;8168;49.036;7.690;2023-09-07T10:04:27;4.55;;;3.15;;
16127;SDS011;8168;49.036;7.690;2023-09-07T10:06:59;3.78;;;3.45;;
16127;SDS011;8168;49.036;7.690;2023-09-07T10:09:35;4.03;;;3.70;;
16127;SDS011;8168;49.036;7.690;2023-09-07T10:12:11;4.53;;;3.45;;
16127;SDS011;8168;49.036;7.690;2023-09-07T10:14:42;3.72;;;3.33;;
16127;SDS011;8168;49.036;7.690;2023-09-07T10:17:21;4.00;;;3.67;;
16127;SDS011;8168;49.036;7.690;2023-09-07T10:20:02;4.18;;;3.60;;
16127;SDS011;8168;49.036;7.690;2023-09-07T10:22:37;6.00;;;3.55;;
16127;SDS011;8168;49.036;7.690;2023-09-07T10:25:17;3.80;;;3.50;;
16127;SDS011;8168;49.036;7.690;2023-09-07T10:27:49;4.65;;;3.55;;
16127;SDS011;8168;49.036;7.690;2023-09-07T10:30:20;3.63;;;3.33;;
16127;SDS011;8168;49.036;7.690;2023-09-07T10:32:53;6.15;;;3.17;;
16127;SDS011;8168;49.036;7.690;2023-09-07T10:35:24;4.03;;;3.70;;
16127;SDS011;8168;49.036;7.690;2023-09-07T10:37:57;3.67;;;3.38;;
16127;SDS011;8168;49.036;7.690;2023-09-07T10:40:28;3.72;;;3.42;;
16127;SDS011;8168;49.036;7.690;2023-09-07T10:43:02;3.70;;;3.35;;
16127;SDS011;8168;49.036;7.690;2023-09-07T10:45:34;3.60;;;3.30;;
16127;SDS011;8168;49.036;7.690;2023-09-07T10:48:05;3.50;;;3.20;;
16127;SDS011;8168;49.036;7.690;2023-09-07T10:50:43;5.22;;;3.90;;
16127;SDS011;8168;49.036;7.690;2023-09-07T10:53:15;4.35;;;3.67;;
16127;SDS011;8168;49.036;7.690;2023-09-07T10:56:07;4.45;;;3.78;;
16127;SDS011;8168;49.036;7.690;2023-09-07T10:58:39;4.63;;;3.70;;
16127;SDS011;8168;49.036;7.690;2023-09-07T11:01:12;4.65;;;3.78;;
16127;SDS011;8168;49.036;7.690;2023-09-07T11:03:42;3.88;;;3.53;;
16127;SDS011;8168;49.036;7.690;2023-09-07T11:06:14;5.93;;;3.58;;
16127;SDS011;8168;49.036;7.690;2023-09-07T11:08:50;4.28;;;3.97;;
16127;SDS011;8168;49.036;7.690;2023-09-07T11:11:21;5.13;;;3.75;;
16127;SDS011;8168;49.036;7.690;2023-09-07T11:13:53;3.97;;;3.67;;
16127;SDS011;8168;49.036;7.690;2023-09-07T11:16:24;4.15;;;3.85;;
16127;SDS011;8168;49.036;7.690;2023-09-07T11:18:56;4.00;;;3.60;;
16127;SDS011;8168;49.036;7.690;2023-09-07T11:21:28;4.03;;;3.63;;
16127;SDS011;8168;49.036;7.690;2023-09-07T11:24:01;4.28;;;3.72;;
16127;SDS011;8168;49.036;7.690;2023-09-07T11:26:44;4.82;;;3.72;;
16127;SDS011;8168;49.036;7.690;2023-09-07T11:29:15;4.18;;;3.83;;
16127;SDS011;8168;49.036;7.690;2023-09-07T11:31:46;6.15;;;3.70;;
16127;SDS011;8168;49.036;7.690;2023-09-07T11:34:17;4.57;;;4.18;;
16127;SDS011;8168;49.036;7.690;2023-09-07T11:36:47;4.43;;;3.47;;
16127;SDS011;8168;49.036;7.690;2023-09-07T11:39:19;4.32;;;3.92;;
16127;SDS011;8168;49.036;7.690;2023-09-07T11:41:49;4.20;;;3.90;;
16127;SDS011;8168;49.036;7.690;2023-09-07T11:44:20;4.40;;;4.00;;
16127;SDS011;8168;49.036;7.690;2023-09-07T11:46:51;3.95;;;3.65;;
16127;SDS011;8168;49.036;7.690;2023-09-07T11:49:21;3.83;;;3.53;;
16127;SDS011;8168;49.036;7.690;2023-09-07T11:51:52;4.63;;;3.38;;
16127;SDS011;8168;49.036;7.690;2023-09-07T11:54:22;4.03;;;3.72;;
16127;SDS011;8168;49.036;7.690;2023-09-07T11:56:53;4.25;;;3.85;;
16127;SDS011;8168;49.036;7.690;2023-09-07T11:59:24;4.07;;;3.78;;
16127;SDS011;8168;49.036;7.690;2023-09-07T12:01:54;3.90;;;3.60;;
16127;SDS011;8168;49.036;7.690;2023-09-07T12:04:25;4.57;;;3.92;;
16127;SDS011;8168;49.036;7.690;2023-09-07T12:06:55;4.07;;;3.78;;
16127;SDS011;8168;49.036;7.690;2023-09-07T12:09:26;4.20;;;3.80;;
16127;SDS011;8168;49.036;7.690;2023-09-07T12:11:57;4.20;;;3.90;;
16127;SDS011;8168;49.036;7.690;2023-09-07T12:14:28;4.30;;;3.90;;
16127;SDS011;8168;49.036;7.690;2023-09-07T12:16:58;5.57;;;3.97;;
16127;SDS011;8168;49.036;7.690;2023-09-07T12:19:29;4.07;;;3.78;;
16127;SDS011;8168;49.036;7.690;2023-09-07T12:22:00;4.18;;;3.78;;
16127;SDS011;8168;49.036;7.690;2023-09-07T12:24:31;3.90;;;3.60;;
16127;SDS011;8168;49.036;7.690;2023-09-07T12:27:01;3.85;;;3.38;;
16127;SDS011;8168;49.036;7.690;2023-09-07T12:29:32;3.85;;;3.55;;
16127;SDS011;8168;49.036;7.690;2023-09-07T12:32:02;5.45;;;4.25;;
16127;SDS011;8168;49.036;7.690;2023-09-07T12:34:33;4.28;;;3.63;;
16127;SDS011;8168;49.036;7.690;2023-09-07T12:37:04;4.20;;;3.90;;
16127;SDS011;8168;49.036;7.690;2023-09-07T12:39:35;4.00;;;3.70;;
16127;SDS011;8168;49.036;7.690;2023-09-07T12:42:05;3.92;;;3.63;;
16127;SDS011;8168;49.036;7.690;2023-09-07T12:44:36;4.20;;;3.80;;
16127;SDS011;8168;49.036;7.690;2023-09-07T12:47:06;4.50;;;4.10;;
16127;SDS011;8168;49.036;7.690;2023-09-07T12:49:37;4.15;;;3.75;;
16127;SDS011;8168;49.036;7.690;2023-09-07T12:52:07;3.85;;;3.55;;
16127;SDS011;8168;49.036;7.690;2023-09-07T12:54:39;4.95;;;3.65;;
16127;SDS011;8168;49.036;7.690;2023-09-07T12:57:10;3.95;;;3.65;;
16127;SDS011;8168;49.036;7.690;2023-09-07T12:59:40;3.85;;;3.55;;
16127;SDS011;8168;49.036;7.690;2023-09-07T13:02:11;4.43;;;4.03;;
16127;SDS011;8168;49.036;7.690;2023-09-07T13:04:42;3.70;;;3.40;;
16127;SDS011;8168;49.036;7.690;2023-09-07T13:07:12;4.40;;;4.00;;
16127;SDS011;8168;49.036;7.690;2023-09-07T13:09:43;4.05;;;3.75;;
16127;SDS011;8168;49.036;7.690;2023-09-07T13:12:15;3.88;;;3.58;;
16127;SDS011;8168;49.036;7.690;2023-09-07T13:14:45;4.28;;;3.97;;
16127;SDS011;8168;49.036;7.690;2023-09-07T13:17:17;4.93;;;4.45;;
16127;SDS011;8168;49.036;7.690;2023-09-07T13:19:48;6.18;;;4.00;;
16127;SDS011;8168;49.036;7.690;2023-09-07T13:22:18;4.80;;;4.40;;
16127;SDS011;8168;49.036;7.690;2023-09-07T13:24:49;4.03;;;3.60;;
16127;SDS011;8168;49.036;7.690;2023-09-07T13:27:19;3.75;;;3.45;;
16127;SDS011;8168;49.036;7.690;2023-09-07T13:29:50;3.63;;;3.30;;
16127;SDS011;8168;49.036;7.690;2023-09-07T13:32:21;3.90;;;3.60;;
16127;SDS011;8168;49.036;7.690;2023-09-07T13:34:51;4.00;;;3.60;;
16127;SDS011;8168;49.036;7.690;2023-09-07T13:37:22;3.80;;;3.50;;
16127;SDS011;8168;49.036;7.690;2023-09-07T13:39:52;4.57;;;4.15;;
16127;SDS011;8168;49.036;7.690;2023-09-07T13:42:24;3.95;;;3.58;;
16127;SDS011;8168;49.036;7.690;2023-09-07T13:44:57;4.03;;;3.70;;
16127;SDS011;8168;49.036;7.690;2023-09-07T13:47:27;3.90;;;3.45;;
16127;SDS011;8168;49.036;7.690;2023-09-07T13:49:58;4.63;;;3.75;;
16127;SDS011;8168;49.036;7.690;2023-09-07T13:52:28;3.88;;;3.58;;
16127;SDS011;8168;49.036;7.690;2023-09-07T13:54:59;4.15;;;3.75;;
16127;SDS011;8168;49.036;7.690;2023-09-07T13:57:30;4.05;;;3.65;;
16127;SDS011;8168;49.036;7.690;2023-09-07T14:00:00;5.50;;;3.67;;
16127;SDS011;8168;49.036;7.690;2023-09-07T14:02:32;3.47;;;3.28;;
16127;SDS011;8168;49.036;7.690;2023-09-07T14:05:02;3.80;;;3.50;;
16127;SDS011;8168;49.036;7.690;2023-09-07T14:07:34;4.18;;;3.78;;
16127;SDS011;8168;49.036;7.690;2023-09-07T14:10:04;4.88;;;3.78;;
16127;SDS011;8168;49.036;7.690;2023-09-07T14:12:35;4.13;;;3.78;;
16127;SDS011;8168;49.036;7.690;2023-09-07T14:15:06;3.70;;;3.40;;
16127;SDS011;8168;49.036;7.690;2023-09-07T14:17:37;4.00;;;3.60;;
16127;SDS011;8168;49.036;7.690;2023-09-07T14:20:07;4.05;;;3.65;;
16127;SDS011;8168;49.036;7.690;2023-09-07T14:22:39;3.85;;;3.55;;
16127;SDS011;8168;49.036;7.690;2023-09-07T14:25:09;3.45;;;3.15;;
16127;SDS011;8168;49.036;7.690;2023-09-07T14:27:40;4.60;;;3.60;;
16127;SDS011;8168;49.036;7.690;2023-09-07T14:30:10;4.10;;;3.78;;
16127;SDS011;8168;49.036;7.690;2023-09-07T14:32:42;4.03;;;3.72;;
16127;SDS011;8168;49.036;7.690;2023-09-07T14:35:13;5.90;;;3.70;;
16127;SDS011;8168;49.036;7.690;2023-09-07T14:37:43;4.00;;;3.70;;
16127;SDS011;8168;49.036;7.690;2023-09-07T14:40:14;3.80;;;3.50;;
16127;SDS011;8168;49.036;7.690;2023-09-07T14:42:45;4.15;;;3.75;;
16127;SDS011;8168;49.036;7.690;2023-09-07T14:45:16;4.10;;;3.70;;
16127;SDS011;8168;49.036;7.690;2023-09-07T14:47:46;4.18;;;3.70;;
16127;SDS011;8168;49.036;7.690;2023-09-07T14:50:17;4.38;;;3.97;;
16127;SDS011;8168;49.036;7.690;2023-09-07T14:52:48;3.78;;;3.47;;
16127;SDS011;8168;49.036;7.690;2023-09-07T14:55:18;4.65;;;4.20;;
16127;SDS011;8168;49.036;7.690;2023-09-07T14:57:49;6.80;;;4.65;;
16127;SDS011;8168;49.036;7.690;2023-09-07T15:00:20;4.40;;;4.00;;
16127;SDS011;8168;49.036;7.690;2023-09-07T15:02:52;4.40;;;4.10;;
16127;SDS011;8168;49.036;7.690;2023-09-07T15:05:23;3.80;;;3.50;;
16127;SDS011;8168;49.036;7.690;2023-09-07T15:07:54;4.07;;;3.67;;
16127;SDS011;8168;49.036;7.690;2023-09-07T15:10:24;8.55;;;4.80;;
16127;SDS011;8168;49.036;7.690;2023-09-07T15:12:56;3.95;;;3.60;;
16127;SDS011;8168;49.036;7.690;2023-09-07T15:15:27;4.00;;;3.55;;
16127;SDS011;8168;49.036;7.690;2023-09-07T15:17:59;4.20;;;3.80;;
16127;SDS011;8168;49.036;7.690;2023-09-07T15:20:30;5.57;;;4.55;;
16127;SDS011;8168;49.036;7.690;2023-09-07T15:23:01;6.88;;;4.15;;
16127;SDS011;8168;49.036;7.690;2023-09-07T15:25:31;4.85;;;3.58;;